NCAR-RAP Real-Time Weather Data

Output produced by METARs form (30 July 2014  15:08 UTC)
found at http://weather.rap.ucar.edu/surface/
 
Conditions at: K4O4 observed 30 July 2014  14:55 UTC
Temperature: 22.0°C (72°F)
Dewpoint: 17.0°C (63°F) [RH = 73%]
Pressure (altimeter): 30.12 inches Hg (1020.1 mb)
Winds: from the SE (140 degrees) at 3 MPH (3 knots; 1.6 m/s)
Visibility: 10 or more miles (16+ km)
Ceiling: at least 12,000 feet AGL
Clouds: sky clear below 12,000 feet AGL
Present Weather: automated observation with no human augmentation;
there may or may not be significant weather present at this time
K4O4 301455Z AUTO 14003KT 10SM CLR 22/17 A3012 RMK AO2